Terminal Aerodrome Forecast
Issued by NWS

Home | Current Version | Previous Version | Graphics & Text | Print | Product List | Glossary On
Versions: 1 2 3 4 5 6 7 8 9 10 11 12 13 14 15 16 17 18 19
000
FTUS43 KICT 220715 AAA
TAFCNU
TAF AMD
KCNU 220715Z 2207/2306 16011KT 5SM BR OVC007
      TEMPO 2207/2211 2SM -DZ BR OVC004
     FM221100 16012KT 4SM BR VCSH OVC008
     FM221800 22015KT P6SM VCSH BKN025
     FM222100 28015KT P6SM BKN025=

USA.gov is the U.S. government's official web portal to all federal, state and local government web resources and services.